Time;durP1;ratioP1;P1;durP2;ratioP2;P2;SDS_P1;SDS_P2;PMS_P1;PMS_P2;Temp;Humidity;BMP_temperature;BMP_pressure;BME280_temperature;BME280_humidity;BME280_pressure;Samples;Min_cycle;Max_cycle;Signal;HPM_P1;HPM_P2
2023/04/21 00:02:05;;;;;;;44.55;20.60;;;;;;;;;;5013105;28;20034;-62
2023/04/21 00:04:31;;;;;;;40.97;20.38;;;;;;;;;;5031860;28;20064;-62
2023/04/21 00:07:00;;;;;;;42.95;19.70;;;;;;;;;;5030640;28;20121;-62
2023/04/21 00:09:26;;;;;;;43.22;21.05;;;;;;;;;;5019479;28;20113;-62
2023/04/21 00:11:51;;;;;;;47.17;20.83;;;;;;;;;;5024793;28;20462;-62
2023/04/21 00:14:16;;;;;;;45.60;20.75;;;;;;;;;;5025515;28;20033;-61
2023/04/21 00:16:42;;;;;;;42.38;20.00;;;;;;;;;;5029106;28;20048;-61
2023/04/21 00:19:07;;;;;;;44.92;21.00;;;;;;;;;;5012761;28;20437;-62
2023/04/21 00:21:34;;;;;;;43.03;20.75;;;;;;;;;;5012511;28;20034;-62
2023/04/21 00:23:59;;;;;;;44.35;21.05;;;;;;;;;;5011836;28;20384;-62
2023/04/21 00:26:25;;;;;;;46.60;20.60;;;;;;;;;;5017172;28;20032;-63
2023/04/21 00:28:50;;;;;;;45.25;21.65;;;;;;;;;;5029519;28;20084;-62
2023/04/21 00:31:16;;;;;;;41.33;19.95;;;;;;;;;;5013288;28;20225;-62
2023/04/21 00:33:41;;;;;;;45.42;21.42;;;;;;;;;;5022499;28;20030;-63
2023/04/21 00:36:06;;;;;;;44.90;21.27;;;;;;;;;;5027783;28;20084;-63
2023/04/21 00:38:32;;;;;;;46.92;21.48;;;;;;;;;;5028577;28;20041;-63
2023/04/21 00:40:57;;;;;;;46.38;21.45;;;;;;;;;;5011742;28;20085;-64
2023/04/21 00:43:24;;;;;;;49.70;22.20;;;;;;;;;;5012364;28;20025;-64
2023/04/21 00:45:50;;;;;;;43.05;20.65;;;;;;;;;;5012288;28;20494;-63
2023/04/21 00:48:15;;;;;;;44.28;21.50;;;;;;;;;;5025532;28;20552;-63
2023/04/21 00:50:42;;;;;;;46.42;22.17;;;;;;;;;;5021892;28;20461;-62
2023/04/21 00:53:08;;;;;;;43.80;20.80;;;;;;;;;;5023666;28;20368;-63
2023/04/21 00:55:34;;;;;;;44.47;21.30;;;;;;;;;;5022211;28;20033;-62
2023/04/21 00:58:01;;;;;;;45.60;21.17;;;;;;;;;;5010572;28;20053;-62
2023/04/21 01:00:26;;;;;;;46.22;21.42;;;;;;;;;;5012491;28;20157;-62
2023/04/21 01:02:52;;;;;;;44.70;20.90;;;;;;;;;;5013774;28;20120;-63
2023/04/21 01:05:17;;;;;;;45.55;20.88;;;;;;;;;;5017115;28;20150;-63
2023/04/21 01:07:43;;;;;;;48.53;22.25;;;;;;;;;;5024596;28;20029;-63
2023/04/21 01:10:09;;;;;;;50.17;22.10;;;;;;;;;;5011487;28;20037;-63
2023/04/21 01:12:42;;;;;;;46.55;22.38;;;;;;;;;;5011511;28;20038;-63
2023/04/21 01:15:08;;;;;;;48.70;22.45;;;;;;;;;;5011550;28;20029;-63
2023/04/21 01:17:37;;;;;;;49.00;22.65;;;;;;;;;;5011913;28;20041;-62
2023/04/21 01:20:07;;;;;;;51.42;22.08;;;;;;;;;;5010527;28;20034;-63
2023/04/21 01:22:35;;;;;;;52.25;22.70;;;;;;;;;;5028764;28;20128;-64
2023/04/21 01:25:00;;;;;;;51.20;22.77;;;;;;;;;;5023451;28;20033;-63
2023/04/21 01:27:26;;;;;;;49.25;22.77;;;;;;;;;;5009541;28;20026;-63
2023/04/21 01:29:52;;;;;;;50.90;22.52;;;;;;;;;;5024312;28;20025;-62
2023/04/21 01:32:20;;;;;;;51.15;22.77;;;;;;;;;;5010261;28;20116;-63
2023/04/21 01:34:46;;;;;;;48.63;21.92;;;;;;;;;;5027117;28;20033;-63
2023/04/21 01:37:18;;;;;;;51.38;22.77;;;;;;;;;;5030176;28;20076;-63
2023/04/21 01:39:50;;;;;;;49.33;22.38;;;;;;;;;;5011514;28;20099;-63
2023/04/21 01:42:17;;;;;;;52.00;22.98;;;;;;;;;;5017841;28;20087;-62
2023/04/21 01:44:42;;;;;;;52.30;23.02;;;;;;;;;;5022790;28;20065;-63
2023/04/21 01:47:07;;;;;;;50.65;23.70;;;;;;;;;;5016370;28;20029;-63
2023/04/21 01:49:33;;;;;;;55.15;23.52;;;;;;;;;;5028746;28;20364;-63
2023/04/21 01:51:58;;;;;;;48.40;22.48;;;;;;;;;;5025451;28;20440;-63
2023/04/21 01:54:24;;;;;;;53.88;23.35;;;;;;;;;;5009614;28;20030;-62
2023/04/21 01:56:49;;;;;;;51.25;22.67;;;;;;;;;;5013162;28;20072;-63
2023/04/21 01:59:15;;;;;;;55.45;23.60;;;;;;;;;;5010791;28;20029;-62
2023/04/21 02:01:40;;;;;;;58.92;24.30;;;;;;;;;;5013499;28;20460;-62
2023/04/21 02:04:05;;;;;;;53.95;23.25;;;;;;;;;;5028469;28;20021;-63
2023/04/21 02:06:31;;;;;;;53.45;22.10;;;;;;;;;;5021977;28;20033;-62
2023/04/21 02:08:57;;;;;;;57.50;24.08;;;;;;;;;;5011178;28;20030;-63
2023/04/21 02:11:24;;;;;;;50.67;23.75;;;;;;;;;;5010651;28;20947;-63
2023/04/21 02:13:53;;;;;;;52.08;23.73;;;;;;;;;;5011331;28;20208;-63
2023/04/21 02:16:19;;;;;;;50.75;24.67;;;;;;;;;;5029448;28;20797;-63
2023/04/21 02:18:46;;;;;;;59.17;25.58;;;;;;;;;;5029367;28;20047;-62
2023/04/21 02:21:11;;;;;;;60.42;25.70;;;;;;;;;;5019691;28;20484;-63
2023/04/21 02:23:36;;;;;;;55.42;23.67;;;;;;;;;;5021280;28;20038;-63
2023/04/21 02:26:02;;;;;;;61.63;25.55;;;;;;;;;;5019037;28;20100;-63
2023/04/21 02:28:27;;;;;;;61.38;25.73;;;;;;;;;;5025601;28;20096;-63
2023/04/21 02:30:53;;;;;;;60.22;25.75;;;;;;;;;;5032653;28;20033;-62
2023/04/21 02:33:18;;;;;;;65.50;26.88;;;;;;;;;;5015912;28;20030;-62
2023/04/21 02:35:44;;;;;;;61.30;25.17;;;;;;;;;;5025893;28;20446;-62
2023/04/21 02:38:10;;;;;;;69.97;27.85;;;;;;;;;;5022915;28;20045;-63
2023/04/21 02:40:35;;;;;;;71.00;27.08;;;;;;;;;;5027479;28;20052;-64
2023/04/21 02:43:01;;;;;;;68.70;27.67;;;;;;;;;;5029784;28;20108;-64
2023/04/21 02:45:27;;;;;;;66.97;27.25;;;;;;;;;;5014505;28;20049;-62
2023/04/21 02:47:52;;;;;;;66.03;28.45;;;;;;;;;;5028237;28;20053;-63
2023/04/21 02:50:18;;;;;;;67.32;27.35;;;;;;;;;;5029809;28;20406;-62
2023/04/21 02:52:43;;;;;;;66.90;27.45;;;;;;;;;;5019885;28;20034;-64
2023/04/21 02:55:08;;;;;;;64.57;27.95;;;;;;;;;;5013036;28;20030;-63
2023/04/21 02:57:34;;;;;;;66.13;26.85;;;;;;;;;;5014063;28;20083;-62
2023/04/21 02:59:59;;;;;;;65.63;27.90;;;;;;;;;;5014412;28;20049;-62
2023/04/21 03:02:25;;;;;;;70.70;29.45;;;;;;;;;;5022968;28;20040;-62
2023/04/21 03:04:50;;;;;;;77.72;29.92;;;;;;;;;;5015245;28;20034;-62
2023/04/21 03:07:16;;;;;;;70.53;27.42;;;;;;;;;;5032218;28;20033;-62
2023/04/21 03:09:41;;;;;;;78.50;29.70;;;;;;;;;;5028651;28;20093;-62
2023/04/21 03:12:07;;;;;;;65.65;27.48;;;;;;;;;;5021097;28;20532;-63
2023/04/21 03:14:32;;;;;;;68.40;27.48;;;;;;;;;;5028250;28;20045;-62
2023/04/21 03:16:58;;;;;;;64.07;28.52;;;;;;;;;;5026538;28;20079;-62
2023/04/21 03:19:23;;;;;;;60.92;26.88;;;;;;;;;;5017578;28;20041;-62
2023/04/21 03:21:48;;;;;;;66.07;27.13;;;;;;;;;;5031111;28;20040;-62
2023/04/21 03:24:14;;;;;;;63.60;27.58;;;;;;;;;;5021971;28;20068;-62
2023/04/21 03:26:39;;;;;;;65.50;27.67;;;;;;;;;;5027941;28;20034;-62
2023/04/21 03:29:05;;;;;;;64.25;27.42;;;;;;;;;;5013207;28;20038;-63
2023/04/21 03:31:31;;;;;;;66.13;28.10;;;;;;;;;;5012504;28;20034;-62
2023/04/21 03:33:56;;;;;;;68.80;29.27;;;;;;;;;;5015659;28;20443;-63
2023/04/21 03:36:22;;;;;;;69.65;28.48;;;;;;;;;;5021960;28;20041;-63
2023/04/21 03:38:47;;;;;;;66.50;28.48;;;;;;;;;;5029386;28;20038;-63
2023/04/21 03:41:14;;;;;;;75.55;28.77;;;;;;;;;;5031517;28;20123;-63
2023/04/21 03:43:39;;;;;;;61.55;27.10;;;;;;;;;;5023456;28;20456;-63
2023/04/21 03:46:04;;;;;;;65.95;27.88;;;;;;;;;;5033396;28;20028;-63
2023/04/21 03:48:30;;;;;;;68.55;28.38;;;;;;;;;;5015663;28;20036;-63
2023/04/21 03:50:56;;;;;;;68.50;27.42;;;;;;;;;;5026785;28;20026;-63
2023/04/21 03:53:21;;;;;;;59.20;27.25;;;;;;;;;;5021826;28;20030;-63
2023/04/21 03:55:49;;;;;;;61.70;26.48;;;;;;;;;;5021581;28;20044;-63
2023/04/21 03:58:15;;;;;;;64.32;26.20;;;;;;;;;;5025188;28;20029;-63
2023/04/21 04:00:40;;;;;;;61.45;26.45;;;;;;;;;;5012310;28;20124;-63
2023/04/21 04:03:06;;;;;;;62.00;27.33;;;;;;;;;;5021251;28;20105;-64
2023/04/21 04:05:32;;;;;;;66.45;28.70;;;;;;;;;;5025835;28;20472;-63
2023/04/21 04:07:57;;;;;;;64.60;26.95;;;;;;;;;;5028871;28;20037;-62
2023/04/21 04:10:23;;;;;;;60.67;27.98;;;;;;;;;;5029147;28;20390;-63
2023/04/21 04:12:48;;;;;;;65.47;28.75;;;;;;;;;;5022573;28;20030;-63
2023/04/21 04:15:14;;;;;;;60.22;27.90;;;;;;;;;;5013423;28;20034;-62
2023/04/21 04:17:39;;;;;;;67.75;29.45;;;;;;;;;;5018287;28;20021;-62
2023/04/21 04:20:07;;;;;;;61.53;27.30;;;;;;;;;;5030380;28;20044;-62
2023/04/21 04:22:32;;;;;;;69.03;29.38;;;;;;;;;;5031639;28;20048;-63
2023/04/21 04:25:00;;;;;;;68.35;29.05;;;;;;;;;;5032613;28;20033;-62
2023/04/21 04:27:26;;;;;;;69.38;29.35;;;;;;;;;;5029135;28;20036;-64
2023/04/21 04:29:52;;;;;;;73.05;30.20;;;;;;;;;;5032851;28;20030;-63
2023/04/21 04:32:17;;;;;;;76.82;30.58;;;;;;;;;;5028919;28;20021;-63
2023/04/21 04:34:43;;;;;;;73.82;30.42;;;;;;;;;;5032769;28;20112;-64
2023/04/21 04:37:09;;;;;;;79.05;31.15;;;;;;;;;;5029616;28;20133;-65
2023/04/21 04:39:36;;;;;;;73.30;29.98;;;;;;;;;;5032214;28;20038;-65
2023/04/21 04:42:02;;;;;;;64.32;29.00;;;;;;;;;;5051514;28;20471;-63
2023/04/21 04:44:28;;;;;;;66.55;29.00;;;;;;;;;;5037361;28;20083;-63
2023/04/21 04:46:55;;;;;;;72.95;30.00;;;;;;;;;;5013033;28;20045;-63
2023/04/21 04:49:20;;;;;;;75.68;30.52;;;;;;;;;;5010327;28;20184;-64
2023/04/21 04:51:46;;;;;;;73.63;30.27;;;;;;;;;;5015783;28;20496;-63
2023/04/21 04:54:11;;;;;;;72.97;29.88;;;;;;;;;;5030151;28;20022;-62
2023/04/21 04:56:37;;;;;;;70.30;30.17;;;;;;;;;;5031831;28;20384;-62
2023/04/21 04:59:02;;;;;;;73.40;30.42;;;;;;;;;;5028385;28;20026;-63
2023/04/21 05:01:29;;;;;;;80.93;31.48;;;;;;;;;;5043903;28;20029;-63
2023/04/21 05:03:55;;;;;;;80.95;32.90;;;;;;;;;;5036799;28;20072;-63
2023/04/21 05:06:22;;;;;;;83.30;32.30;;;;;;;;;;5035188;28;20056;-63
2023/04/21 05:08:47;;;;;;;72.13;30.17;;;;;;;;;;5030717;28;20030;-63
2023/04/21 05:11:12;;;;;;;78.57;31.30;;;;;;;;;;5028572;28;20087;-62
2023/04/21 05:13:38;;;;;;;85.35;32.55;;;;;;;;;;5031845;28;20055;-63
2023/04/21 05:16:04;;;;;;;82.82;30.92;;;;;;;;;;5030160;28;20037;-63
2023/04/21 05:18:29;;;;;;;73.90;31.55;;;;;;;;;;5029006;28;20035;-64
2023/04/21 05:20:55;;;;;;;76.70;31.88;;;;;;;;;;5030729;28;20487;-63
2023/04/21 05:23:21;;;;;;;78.10;30.92;;;;;;;;;;5030588;28;20021;-63
2023/04/21 05:25:46;;;;;;;75.03;31.27;;;;;;;;;;5026217;28;20591;-66
2023/04/21 05:28:12;;;;;;;74.63;30.83;;;;;;;;;;5027442;28;20434;-73
2023/04/21 05:30:37;;;;;;;74.20;30.95;;;;;;;;;;5029446;28;20036;-68
2023/04/21 05:33:03;;;;;;;74.22;32.00;;;;;;;;;;5036072;28;20467;-67
2023/04/21 05:35:32;;;;;;;68.20;29.75;;;;;;;;;;5027754;28;20055;-69
2023/04/21 05:37:57;;;;;;;73.47;31.25;;;;;;;;;;5031372;28;20480;-66
2023/04/21 05:40:23;;;;;;;73.78;31.02;;;;;;;;;;5030435;28;20029;-67
2023/04/21 05:42:48;;;;;;;74.57;30.25;;;;;;;;;;5032223;28;20086;-66
2023/04/21 05:45:13;;;;;;;69.50;29.83;;;;;;;;;;5030432;28;20037;-67
2023/04/21 05:47:39;;;;;;;70.85;31.30;;;;;;;;;;5031093;28;20041;-67
2023/04/21 05:50:06;;;;;;;66.32;29.27;;;;;;;;;;5026933;28;20033;-67
2023/04/21 05:52:31;;;;;;;62.70;29.90;;;;;;;;;;5030004;28;20029;-68
2023/04/21 05:54:58;;;;;;;74.45;31.70;;;;;;;;;;5030234;28;20028;-66
2023/04/21 05:57:24;;;;;;;64.85;30.38;;;;;;;;;;5030287;28;20041;-68
2023/04/21 05:59:49;;;;;;;74.10;30.10;;;;;;;;;;5028059;28;20096;-67
2023/04/21 06:02:15;;;;;;;70.70;30.63;;;;;;;;;;5030707;28;20079;-70
2023/04/21 06:04:40;;;;;;;75.15;32.08;;;;;;;;;;5030597;28;20064;-68
2023/04/21 06:07:06;;;;;;;76.75;32.70;;;;;;;;;;5026816;28;20033;-68
2023/04/21 06:09:33;;;;;;;67.47;31.42;;;;;;;;;;5012005;28;20140;-68
2023/04/21 06:11:58;;;;;;;69.28;31.00;;;;;;;;;;5025468;28;20112;-68
2023/04/21 06:14:23;;;;;;;67.47;30.20;;;;;;;;;;5029395;28;20104;-67
2023/04/21 06:16:49;;;;;;;68.50;31.20;;;;;;;;;;5017303;28;20053;-69
2023/04/21 06:19:14;;;;;;;73.65;31.40;;;;;;;;;;5030591;28;20575;-70
2023/04/21 06:21:40;;;;;;;69.00;30.90;;;;;;;;;;5026800;28;20116;-68
2023/04/21 06:24:06;;;;;;;73.07;30.98;;;;;;;;;;5027495;28;20079;-70
2023/04/21 06:26:31;;;;;;;73.57;31.85;;;;;;;;;;5029583;28;20056;-69
2023/04/21 06:28:56;;;;;;;70.18;31.00;;;;;;;;;;5031149;28;20464;-68
2023/04/21 06:31:22;;;;;;;70.05;32.28;;;;;;;;;;5026698;28;20391;-68
2023/04/21 06:33:48;;;;;;;67.97;31.23;;;;;;;;;;5029384;28;20044;-70
2023/04/21 06:36:13;;;;;;;73.00;32.63;;;;;;;;;;5030416;28;20150;-68
2023/04/21 06:38:40;;;;;;;71.50;31.80;;;;;;;;;;5029921;28;20472;-70
2023/04/21 06:41:06;;;;;;;68.65;32.15;;;;;;;;;;5031133;28;20091;-69
2023/04/21 06:43:31;;;;;;;70.43;32.03;;;;;;;;;;5034491;28;20108;-67
2023/04/21 06:45:57;;;;;;;66.07;30.95;;;;;;;;;;5030842;28;20033;-67
2023/04/21 06:48:23;;;;;;;60.35;29.75;;;;;;;;;;5028690;28;20387;-68
2023/04/21 06:50:48;;;;;;;62.50;31.15;;;;;;;;;;5024177;28;20052;-67
2023/04/21 06:53:16;;;;;;;65.53;30.85;;;;;;;;;;5029456;28;20034;-67
2023/04/21 06:55:42;;;;;;;62.67;30.70;;;;;;;;;;5029505;28;20033;-67
2023/04/21 06:58:07;;;;;;;56.90;30.48;;;;;;;;;;5029535;28;20040;-66
2023/04/21 07:00:39;;;;;;;58.95;30.25;;;;;;;;;;5011658;28;20514;-66
2023/04/21 07:03:05;;;;;;;52.60;29.13;;;;;;;;;;5013700;28;20029;-66
2023/04/21 07:05:30;;;;;;;55.03;28.15;;;;;;;;;;5010027;28;20026;-68
2023/04/21 07:07:58;;;;;;;54.60;28.45;;;;;;;;;;5026201;28;20044;-66
2023/04/21 07:10:25;;;;;;;55.78;28.45;;;;;;;;;;5033364;28;20037;-66
2023/04/21 07:12:50;;;;;;;52.20;29.52;;;;;;;;;;5031592;28;20068;-67
2023/04/21 07:15:16;;;;;;;53.35;28.65;;;;;;;;;;5034234;28;20037;-63
2023/04/21 07:17:41;;;;;;;56.50;28.67;;;;;;;;;;5020756;28;20033;-67
2023/04/21 07:20:07;;;;;;;52.55;28.38;;;;;;;;;;5034388;28;20036;-63
2023/04/21 07:22:34;;;;;;;51.17;28.58;;;;;;;;;;5030284;28;20033;-67
2023/04/21 07:25:05;;;;;;;54.72;29.70;;;;;;;;;;5032669;28;20029;-66
2023/04/21 07:27:30;;;;;;;52.23;27.10;;;;;;;;;;5031027;28;20033;-69
2023/04/21 07:29:55;;;;;;;52.53;28.65;;;;;;;;;;5033853;28;20285;-66
2023/04/21 07:32:21;;;;;;;48.47;27.88;;;;;;;;;;5024801;28;20037;-68
2023/04/21 07:34:47;;;;;;;52.00;29.48;;;;;;;;;;5033788;28;20464;-69
2023/04/21 07:37:12;;;;;;;51.72;28.35;;;;;;;;;;5029625;28;20050;-67
2023/04/21 07:39:37;;;;;;;52.10;28.48;;;;;;;;;;5031254;28;20037;-65
2023/04/21 07:42:06;;;;;;;44.35;26.85;;;;;;;;;;5031952;28;20029;-67
2023/04/21 07:44:32;;;;;;;50.05;26.08;;;;;;;;;;5032654;28;20455;-68
2023/04/21 07:46:57;;;;;;;47.72;26.88;;;;;;;;;;5030754;28;20126;-66
2023/04/21 07:49:23;;;;;;;47.55;27.02;;;;;;;;;;5032038;28;20104;-66
2023/04/21 07:51:48;;;;;;;43.97;25.73;;;;;;;;;;5031650;28;20025;-67
2023/04/21 07:54:14;;;;;;;44.72;26.08;;;;;;;;;;5033235;28;20088;-65
2023/04/21 07:56:39;;;;;;;46.47;26.75;;;;;;;;;;5030718;28;20609;-67
2023/04/21 07:59:05;;;;;;;40.08;25.75;;;;;;;;;;5030466;28;20132;-64
2023/04/21 08:01:30;;;;;;;43.83;26.65;;;;;;;;;;5024243;28;20038;-65
2023/04/21 08:03:55;;;;;;;42.25;25.73;;;;;;;;;;5032931;28;20060;-64
2023/04/21 08:06:21;;;;;;;45.85;25.85;;;;;;;;;;5027050;28;20022;-65
2023/04/21 08:08:46;;;;;;;43.75;25.15;;;;;;;;;;5022506;28;20045;-65
2023/04/21 08:11:12;;;;;;;51.45;27.45;;;;;;;;;;5032375;28;20037;-63
2023/04/21 08:13:37;;;;;;;42.92;25.30;;;;;;;;;;5032566;28;20547;-66
2023/04/21 08:16:03;;;;;;;40.75;26.40;;;;;;;;;;5032191;28;20523;-66
2023/04/21 08:18:28;;;;;;;44.45;25.90;;;;;;;;;;5027466;28;20463;-65
2023/04/21 08:20:56;;;;;;;41.42;24.42;;;;;;;;;;5013239;28;20409;-64
2023/04/21 08:23:22;;;;;;;40.08;25.20;;;;;;;;;;5016656;28;20045;-64
2023/04/21 08:25:47;;;;;;;38.13;23.60;;;;;;;;;;5031511;28;20095;-64
2023/04/21 08:28:14;;;;;;;39.28;23.13;;;;;;;;;;5032042;28;20327;-65
2023/04/21 08:30:40;;;;;;;38.65;23.85;;;;;;;;;;5027044;28;20079;-64
2023/04/21 08:33:07;;;;;;;37.33;23.23;;;;;;;;;;5031366;28;20472;-65
2023/04/21 08:35:33;;;;;;;38.15;23.05;;;;;;;;;;5031020;28;20026;-66
2023/04/21 08:37:58;;;;;;;38.90;22.75;;;;;;;;;;5029554;28;20049;-65
2023/04/21 08:40:33;;;;;;;37.67;22.85;;;;;;;;;;5030184;28;20033;-66
2023/04/21 08:42:58;;;;;;;37.38;22.27;;;;;;;;;;5032460;28;20053;-65
2023/04/21 08:45:25;;;;;;;33.88;22.05;;;;;;;;;;5030475;28;20061;-66
2023/04/21 08:47:51;;;;;;;35.95;22.50;;;;;;;;;;5030990;28;20163;-63
2023/04/21 08:50:16;;;;;;;35.33;22.20;;;;;;;;;;5030734;28;20105;-65
2023/04/21 08:52:41;;;;;;;35.17;22.70;;;;;;;;;;5031828;28;20025;-65
2023/04/21 08:55:08;;;;;;;37.67;23.45;;;;;;;;;;5030707;28;20420;-64
2023/04/21 08:57:34;;;;;;;36.40;22.30;;;;;;;;;;5012128;28;20029;-63
2023/04/21 08:59:59;;;;;;;33.80;21.75;;;;;;;;;;5019929;28;20480;-63
2023/04/21 09:02:25;;;;;;;34.47;22.17;;;;;;;;;;5015748;28;20030;-65
2023/04/21 09:04:51;;;;;;;33.15;22.15;;;;;;;;;;5025809;28;20038;-66
2023/04/21 09:07:34;;;;;;;37.17;22.30;;;;;;;;;;5041620;28;20033;-64
2023/04/21 09:10:00;;;;;;;37.20;21.40;;;;;;;;;;5032257;28;20103;-64
2023/04/21 09:12:27;;;;;;;32.85;20.98;;;;;;;;;;5028314;28;20045;-63
2023/04/21 09:14:54;;;;;;;32.35;21.20;;;;;;;;;;5031892;28;20080;-65
2023/04/21 09:17:27;;;;;;;35.95;21.52;;;;;;;;;;5013065;28;20033;-64
2023/04/21 09:19:52;;;;;;;36.05;21.40;;;;;;;;;;5032124;28;20030;-63
2023/04/21 09:22:18;;;;;;;32.45;20.67;;;;;;;;;;5029875;28;20375;-64
2023/04/21 09:24:45;;;;;;;33.80;21.58;;;;;;;;;;5029616;28;20033;-65
2023/04/21 09:27:11;;;;;;;34.92;20.85;;;;;;;;;;5024151;28;20081;-65
2023/04/21 09:29:36;;;;;;;31.55;20.25;;;;;;;;;;5028586;28;20041;-64
2023/04/21 09:32:02;;;;;;;33.03;21.15;;;;;;;;;;5021366;28;20053;-66
2023/04/21 09:34:28;;;;;;;34.03;21.15;;;;;;;;;;5022407;28;20087;-63
2023/04/21 09:37:00;;;;;;;29.17;20.67;;;;;;;;;;5031289;28;20408;-63
2023/04/21 09:39:28;;;;;;;32.00;21.33;;;;;;;;;;5028947;28;20041;-64
2023/04/21 09:41:54;;;;;;;33.38;21.10;;;;;;;;;;5032535;28;20037;-64
2023/04/21 09:44:20;;;;;;;32.10;20.70;;;;;;;;;;5026257;28;20036;-64
2023/04/21 09:46:48;;;;;;;29.92;20.30;;;;;;;;;;5030886;28;20075;-64
2023/04/21 09:49:16;;;;;;;32.63;20.73;;;;;;;;;;5030284;28;20552;-64
2023/04/21 09:51:42;;;;;;;32.00;20.13;;;;;;;;;;5026826;28;20061;-65
2023/04/21 09:54:20;;;;;;;30.60;20.20;;;;;;;;;;5027494;28;20061;-64
2023/04/21 09:56:49;;;;;;;30.58;19.67;;;;;;;;;;5029193;28;20427;-65
2023/04/21 09:59:28;;;;;;;31.43;20.40;;;;;;;;;;5030781;28;20041;-66
2023/04/21 10:01:55;;;;;;;29.65;19.83;;;;;;;;;;5028304;28;20040;-66
2023/04/21 10:04:22;;;;;;;32.67;20.08;;;;;;;;;;5031159;28;20484;-65
2023/04/21 10:06:48;;;;;;;31.05;20.30;;;;;;;;;;5015430;28;20042;-65
2023/04/21 10:09:17;;;;;;;29.52;19.63;;;;;;;;;;5027510;28;20077;-65
2023/04/21 10:11:42;;;;;;;30.25;19.80;;;;;;;;;;5029681;28;20048;-67
2023/04/21 10:14:08;;;;;;;30.17;20.63;;;;;;;;;;5031265;28;20025;-67
2023/04/21 10:16:37;;;;;;;30.80;20.20;;;;;;;;;;5025729;28;20112;-65
2023/04/21 10:19:24;;;;;;;30.48;20.17;;;;;;;;;;5030414;28;20527;-66
2023/04/21 10:21:49;;;;;;;31.08;20.17;;;;;;;;;;5011485;28;20037;-66
2023/04/21 10:24:15;;;;;;;29.92;20.38;;;;;;;;;;5017188;28;20033;-66
2023/04/21 10:26:40;;;;;;;32.00;20.40;;;;;;;;;;5030276;28;20040;-68
2023/04/21 10:29:08;;;;;;;27.48;19.00;;;;;;;;;;5031112;28;20109;-68
2023/04/21 10:31:52;;;;;;;28.30;19.67;;;;;;;;;;5028209;28;20041;-67
2023/04/21 10:34:19;;;;;;;30.38;19.15;;;;;;;;;;5029733;28;20033;-66
2023/04/21 10:36:45;;;;;;;27.80;18.60;;;;;;;;;;5026187;28;20050;-66
2023/04/21 10:39:27;;;;;;;28.13;19.02;;;;;;;;;;5030360;28;20092;-65
2023/04/21 10:42:18;;;;;;;30.85;18.42;;;;;;;;;;5025624;28;20030;-66
2023/04/21 10:44:52;;;;;;;27.30;17.98;;;;;;;;;;5029265;28;20026;-66
2023/04/21 10:47:29;;;;;;;27.85;18.40;;;;;;;;;;5034191;28;20155;-66
2023/04/21 10:49:57;;;;;;;28.77;18.48;;;;;;;;;;5030536;28;20044;-66
2023/04/21 10:52:30;;;;;;;27.77;18.33;;;;;;;;;;5029055;28;20065;-65
2023/04/21 10:54:55;;;;;;;27.10;18.77;;;;;;;;;;5034770;28;20155;-65
2023/04/21 10:57:21;;;;;;;28.25;18.35;;;;;;;;;;5034735;28;20104;-65
2023/04/21 10:59:48;;;;;;;26.23;18.13;;;;;;;;;;5032499;28;20112;-66
2023/04/21 11:02:17;;;;;;;23.67;17.50;;;;;;;;;;5032137;28;20033;-64
2023/04/21 11:04:46;;;;;;;28.65;18.17;;;;;;;;;;5032300;28;20037;-64
2023/04/21 11:07:12;;;;;;;28.40;18.42;;;;;;;;;;5016248;28;20518;-64
2023/04/21 11:09:39;;;;;;;25.45;17.52;;;;;;;;;;5019232;28;20066;-65
2023/04/21 11:12:09;;;;;;;27.88;18.27;;;;;;;;;;5022970;28;20484;-66
2023/04/21 11:14:35;;;;;;;24.27;16.42;;;;;;;;;;5033233;28;20057;-65
2023/04/21 11:17:02;;;;;;;26.30;17.73;;;;;;;;;;5032564;28;20032;-67
2023/04/21 11:19:30;;;;;;;25.17;17.63;;;;;;;;;;5020530;28;20048;-65
2023/04/21 11:21:55;;;;;;;24.83;18.15;;;;;;;;;;5025388;28;20072;-67
2023/04/21 11:24:21;;;;;;;29.30;18.52;;;;;;;;;;5025978;28;20049;-67
2023/04/21 11:26:47;;;;;;;27.60;18.85;;;;;;;;;;5030419;28;20030;-65
2023/04/21 11:29:13;;;;;;;28.30;17.48;;;;;;;;;;5032279;28;20426;-67
2023/04/21 11:31:42;;;;;;;26.85;18.02;;;;;;;;;;5030846;28;20486;-66
2023/04/21 11:34:08;;;;;;;26.58;18.20;;;;;;;;;;5038968;28;20483;-67
2023/04/21 11:36:41;;;;;;;25.80;17.55;;;;;;;;;;5032603;28;20125;-66
2023/04/21 11:39:08;;;;;;;29.90;18.38;;;;;;;;;;5032444;28;20033;-68
2023/04/21 11:41:35;;;;;;;24.98;16.90;;;;;;;;;;5029636;28;20041;-68
2023/04/21 11:44:01;;;;;;;27.25;17.73;;;;;;;;;;5033481;28;20052;-67
2023/04/21 11:46:27;;;;;;;25.92;17.40;;;;;;;;;;5033389;28;20919;-67
2023/04/21 11:49:04;;;;;;;25.45;17.92;;;;;;;;;;5031066;28;20084;-66
2023/04/21 11:51:33;;;;;;;24.23;17.38;;;;;;;;;;5014149;28;20034;-66
2023/04/21 11:53:59;;;;;;;25.27;17.15;;;;;;;;;;5030530;28;20083;-66
2023/04/21 11:56:25;;;;;;;25.05;17.13;;;;;;;;;;5030952;28;20033;-66
2023/04/21 11:58:54;;;;;;;24.55;17.42;;;;;;;;;;5032599;28;20071;-65
2023/04/21 12:01:21;;;;;;;22.50;16.10;;;;;;;;;;5028535;28;20467;-65
2023/04/21 12:03:51;;;;;;;26.08;17.65;;;;;;;;;;5028525;28;20057;-65
2023/04/21 12:06:21;;;;;;;27.73;18.33;;;;;;;;;;5020177;28;20435;-66
2023/04/21 12:08:46;;;;;;;27.00;18.35;;;;;;;;;;5027487;28;20045;-66
2023/04/21 12:11:15;;;;;;;24.25;17.42;;;;;;;;;;5032003;28;20030;-65
2023/04/21 12:13:41;;;;;;;26.30;17.77;;;;;;;;;;5032259;28;20033;-66
2023/04/21 12:16:06;;;;;;;26.20;18.55;;;;;;;;;;5031539;28;20033;-65
2023/04/21 12:18:32;;;;;;;26.73;18.85;;;;;;;;;;5031806;28;20037;-66
2023/04/21 12:21:00;;;;;;;26.20;18.10;;;;;;;;;;5032645;28;20082;-65
2023/04/21 12:23:25;;;;;;;25.00;18.08;;;;;;;;;;5031552;28;20044;-66
2023/04/21 12:25:51;;;;;;;25.02;17.23;;;;;;;;;;5031597;28;20025;-66
2023/04/21 12:28:17;;;;;;;23.95;17.45;;;;;;;;;;5025951;28;20384;-66
2023/04/21 12:30:43;;;;;;;25.75;18.20;;;;;;;;;;5030930;28;20029;-65
2023/04/21 12:33:09;;;;;;;25.63;18.38;;;;;;;;;;5030558;28;20387;-65
2023/04/21 12:35:35;;;;;;;24.75;17.35;;;;;;;;;;5031879;28;20048;-66
2023/04/21 12:38:00;;;;;;;23.73;17.15;;;;;;;;;;5029298;28;20053;-65
2023/04/21 12:40:26;;;;;;;26.50;17.52;;;;;;;;;;5032444;28;20021;-71
2023/04/21 12:42:51;;;;;;;25.25;17.50;;;;;;;;;;5025745;28;20603;-65
2023/04/21 12:45:16;;;;;;;24.80;17.25;;;;;;;;;;5030210;28;20041;-68
2023/04/21 12:47:42;;;;;;;25.52;17.33;;;;;;;;;;5025327;28;20034;-64
2023/04/21 12:50:09;;;;;;;24.90;17.55;;;;;;;;;;5012652;28;20041;-66
2023/04/21 12:52:35;;;;;;;26.70;17.13;;;;;;;;;;5021056;28;20037;-64
2023/04/21 12:55:00;;;;;;;24.48;17.67;;;;;;;;;;5045562;28;20105;-65
2023/04/21 12:57:26;;;;;;;24.17;17.20;;;;;;;;;;5040414;28;20437;-65
2023/04/21 12:59:51;;;;;;;24.40;17.23;;;;;;;;;;5031596;28;20475;-67
2023/04/21 13:02:17;;;;;;;23.17;16.80;;;;;;;;;;5030364;28;20030;-64
2023/04/21 13:04:42;;;;;;;24.70;17.52;;;;;;;;;;5023380;28;20034;-65
2023/04/21 13:07:08;;;;;;;24.55;17.58;;;;;;;;;;5024902;28;20026;-66
2023/04/21 13:09:33;;;;;;;23.67;16.83;;;;;;;;;;5031237;28;20478;-65
2023/04/21 13:11:58;;;;;;;23.00;17.40;;;;;;;;;;5029663;28;20033;-65
2023/04/21 13:14:24;;;;;;;24.65;17.02;;;;;;;;;;5032205;28;20051;-65
2023/04/21 13:16:50;;;;;;;23.00;16.70;;;;;;;;;;5036386;28;20034;-65
2023/04/21 13:19:15;;;;;;;20.50;16.50;;;;;;;;;;5030263;28;20044;-65
2023/04/21 13:21:40;;;;;;;21.10;15.95;;;;;;;;;;5031197;28;20115;-65
2023/04/21 13:24:06;;;;;;;21.45;15.80;;;;;;;;;;5030950;28;20033;-65
2023/04/21 13:26:33;;;;;;;19.95;15.02;;;;;;;;;;5031998;28;20495;-65
2023/04/21 13:28:59;;;;;;;23.88;16.25;;;;;;;;;;5029591;28;20387;-65
2023/04/21 13:31:25;;;;;;;20.50;15.70;;;;;;;;;;5031695;28;20037;-65
2023/04/21 13:33:50;;;;;;;19.85;15.27;;;;;;;;;;5013037;28;20076;-64
2023/04/21 13:36:16;;;;;;;22.17;15.93;;;;;;;;;;5033849;28;20041;-66
2023/04/21 13:38:41;;;;;;;19.40;15.45;;;;;;;;;;5029297;28;20392;-65
2023/04/21 13:41:07;;;;;;;21.73;15.57;;;;;;;;;;5030446;28;20025;-64
2023/04/21 13:43:33;;;;;;;20.38;15.45;;;;;;;;;;5029380;28;20040;-63
2023/04/21 13:45:58;;;;;;;20.58;14.90;;;;;;;;;;5031249;28;20033;-64
2023/04/21 13:48:23;;;;;;;22.92;15.30;;;;;;;;;;5030284;28;20036;-65
2023/04/21 13:50:50;;;;;;;20.80;15.88;;;;;;;;;;5029327;28;20384;-64
2023/04/21 13:53:15;;;;;;;23.50;16.65;;;;;;;;;;5029367;28;20034;-64
2023/04/21 13:55:42;;;;;;;21.25;15.63;;;;;;;;;;5030827;28;20502;-64
2023/04/21 13:58:08;;;;;;;21.75;16.55;;;;;;;;;;5030418;28;20103;-64
2023/04/21 14:00:34;;;;;;;23.20;15.30;;;;;;;;;;5029261;28;20045;-65
2023/04/21 14:03:00;;;;;;;20.30;15.20;;;;;;;;;;5031225;28;20034;-64
2023/04/21 14:05:25;;;;;;;22.85;15.98;;;;;;;;;;5020115;28;20042;-65
2023/04/21 14:07:51;;;;;;;22.20;15.30;;;;;;;;;;5018421;28;20473;-66
2023/04/21 14:10:16;;;;;;;19.17;15.07;;;;;;;;;;5041954;28;20033;-66
2023/04/21 14:12:43;;;;;;;21.02;14.80;;;;;;;;;;5031203;28;20396;-67